Airfield :
LOGIN :

Register | Disclaimer

   EN    FR    IT 

 










Legend :    VFR   Marginal VFR   IFR   Intensive IFR   Very Intensive IFR
Visi :
Ceiling :
>= 8 km
>= 3000ft
5 to 8 km
1000 to 3000 ft
1500m to 5 km
500 to 1000 ft
800 to 1500m
200 to 500 ft
< 800m
< 200 ft
Symbols :   Thunderstorms  Fog  Heavy snow  Heavy precipitations  Wind > 20 kt
SIGMETs :     Misc.  Thunderstorms  Icing  Turbulence  Mountain Waves  Volcanic Ashes






- Airport Elevation : 147 ft
- IATA code : DUS


EDDL - Düsseldorf Int.

CURRENT METAR :
  • 261050Z 23009KT 3500 -DZ BR FEW007 BKN011 02/01 Q1032 BECMG 5000

EXPIRED METARs :
  • 261020Z 22009KT 3800 -DZ BR FEW008 BKN012 02/00 Q1032 BECMG 5000
  • 260950Z 23007KT 3800 -DZ BR SCT012 BKN016 02/00 Q1033 TEMPO BKN012
  • 260920Z 24007KT 4000 -DZ BR FEW012 BKN018 02/M00 Q1032 BECMG 6000
  • 260850Z 23007KT 4200 BR OVC017 02/M01 Q1033 BECMG 6000
  • 260820Z 21007KT 4400 BR OVC017 02/M01 Q1032 BECMG 6000
  • 260750Z 23005KT 4400 BR OVC017 02/M01 Q1032 BECMG 6000

TAF AMD TAF EDDL
Valid from the 26 at 08:00 until the 27 at 12:00 UTC


260806Z 2608/2712 23005KT 4000 BR OVC015
BECMG 2609/2611 7000
PROB30
TEMPO 2611/2615 OVC012
BECMG 2620/2623 22010KT
TEMPO 2702/2712 BKN009
BECMG 2708/2711 24015G25KT



MET'MAP, your aeronautical weather chart ! - Copyright ORBIFLY December 2007 - Disclaimer

ORBIFLY MET'MAP TEAM :

Programming & Development : Alexandra Zaïnal
Original concept : Baudouin d'Aumeries
Technical & hardware support : Manuel Goepfert
Assistance : Marc-Olivier Méhu

Contact : metmap@orbifly.com




SOURCES & CREDITS :

   NOAA